Terminal Aerodrome Forecast
Issued by NWS

Home | Current Version | Previous Version | Text Only | Print | Product List | Glossary On
Versions: 1 2 3 4 5 6 7 8 9 10 11 12 13 14 15 16 17 18 19 20 21 22 23 24 25 26 27
000
FTUS43 KGRR 251700
TAFBTL
TAF
KBTL 251740Z 2518/2618 24014G22KT P6SM OVC017
     FM252200 21012G20KT P6SM FEW020 BKN200
     FM260000 20008KT P6SM BKN200=

USA.gov is the U.S. government's official web portal to all federal, state and local government web resources and services.